Cedar Lake, Texas
Current Conditions -  °F | °C
As of 2:53 AM on Monday 20 Oct 2014 (Local Time) from KLBX Reporting Station
Overcast Overcast  
Wind Chill: 68°   Ceiling: 7500
Heat Index: 68°   Visibility: 10mi
Dew Point: 65°   Wind: 6mph
Humidity: 90%   Direction: 60°ENE
Pressure: 30"   Gusts: NA
Location:  28.8997°N, 95.7887°W
Report Text: KLBX 200753Z AUTO 06005KT 10SM OVC075 20/18 A3000 RMK AO2 SLP159 T02000183
Loading
Personal Weather Stations






























Interactive Weather Map New forecast layout! Learn more

10-Day Weather Forecast

Advertisements
Track Severe Weather on mobile